Time;durP1;ratioP1;P1;durP2;ratioP2;P2;SDS_P1;SDS_P2;PMS_P1;PMS_P2;Temp;Humidity;BMP_temperature;BMP_pressure;BME280_temperature;BME280_humidity;BME280_pressure;Samples;Min_cycle;Max_cycle;Signal;HPM_P1;HPM_P2
2023/12/14 00:00:43;;;;;;;33.55;4.93;;;;;;;;;;5050361;28;20036;-68
2023/12/14 00:03:49;;;;;;;24.02;5.10;;;;;;;;;;5050762;28;20036;-69
2023/12/14 00:06:53;;;;;;;35.47;5.38;;;;;;;;;;5051494;28;20535;-68
2023/12/14 00:09:58;;;;;;;28.60;5.72;;;;;;;;;;5054229;28;20062;-69
2023/12/14 00:13:04;;;;;;;26.13;5.22;;;;;;;;;;5054110;28;20045;-68
2023/12/14 00:16:09;;;;;;;26.05;5.13;;;;;;;;;;5053400;28;20458;-68
2023/12/14 00:19:13;;;;;;;19.98;4.43;;;;;;;;;;5054120;28;20045;-68
2023/12/14 00:22:17;;;;;;;26.75;5.53;;;;;;;;;;5054463;28;20041;-68
2023/12/14 00:25:22;;;;;;;29.45;6.25;;;;;;;;;;5054195;28;20050;-69
2023/12/14 00:28:26;;;;;;;30.00;5.80;;;;;;;;;;5054240;28;20040;-69
2023/12/14 00:31:34;;;;;;;27.52;6.90;;;;;;;;;;5053629;28;20033;-69
2023/12/14 00:34:38;;;;;;;24.60;5.65;;;;;;;;;;5053681;28;20052;-69
2023/12/14 00:37:42;;;;;;;25.38;6.00;;;;;;;;;;5053560;28;20033;-68
2023/12/14 00:40:47;;;;;;;22.65;5.55;;;;;;;;;;5053782;28;20384;-70
2023/12/14 00:43:51;;;;;;;27.52;5.68;;;;;;;;;;5053744;28;20040;-68
2023/12/14 00:46:56;;;;;;;32.80;6.00;;;;;;;;;;5053689;28;20412;-69
2023/12/14 00:50:01;;;;;;;22.92;5.18;;;;;;;;;;5053736;28;20571;-68
2023/12/14 00:53:05;;;;;;;29.13;7.57;;;;;;;;;;5053608;28;20049;-68
2023/12/14 00:56:10;;;;;;;24.90;6.10;;;;;;;;;;5052764;28;20504;-68
2023/12/14 00:59:14;;;;;;;33.13;6.85;;;;;;;;;;5053726;28;20056;-68
2023/12/14 01:02:18;;;;;;;22.15;5.93;;;;;;;;;;5053752;28;20046;-69
2023/12/14 01:05:22;;;;;;;30.17;6.07;;;;;;;;;;5053735;28;20493;-68
2023/12/14 01:08:27;;;;;;;31.23;6.47;;;;;;;;;;5053260;28;20045;-68
2023/12/14 01:11:31;;;;;;;25.83;6.10;;;;;;;;;;5053362;28;20040;-68
2023/12/14 01:14:35;;;;;;;23.92;6.22;;;;;;;;;;5052663;28;20503;-69
2023/12/14 01:17:40;;;;;;;27.80;6.10;;;;;;;;;;5052875;28;20042;-69
2023/12/14 01:20:44;;;;;;;29.02;7.03;;;;;;;;;;5053093;28;20063;-68
2023/12/14 01:23:49;;;;;;;18.15;5.20;;;;;;;;;;5052965;28;20037;-69
2023/12/14 01:26:53;;;;;;;20.92;5.40;;;;;;;;;;5052732;28;20139;-68
2023/12/14 01:29:58;;;;;;;12.60;4.10;;;;;;;;;;5052888;28;20041;-68
2023/12/14 01:33:02;;;;;;;13.95;2.78;;;;;;;;;;5052809;28;20397;-68
2023/12/14 01:36:06;;;;;;;14.38;3.15;;;;;;;;;;5052837;28;20028;-68
2023/12/14 01:39:11;;;;;;;11.10;2.80;;;;;;;;;;5052523;28;20066;-69
2023/12/14 01:42:15;;;;;;;13.27;3.10;;;;;;;;;;5052595;28;20048;-69
2023/12/14 01:45:20;;;;;;;14.13;2.58;;;;;;;;;;5052440;28;20056;-69
2023/12/14 01:48:23;;;;;;;7.35;2.05;;;;;;;;;;5052501;28;20389;-68
2023/12/14 01:51:28;;;;;;;10.48;2.42;;;;;;;;;;5052291;28;20041;-68
2023/12/14 01:54:33;;;;;;;11.05;2.30;;;;;;;;;;5052291;28;20047;-68
2023/12/14 01:57:37;;;;;;;10.20;3.30;;;;;;;;;;5052403;28;20168;-69
2023/12/14 02:00:56;;;;;;;19.70;2.83;;;;;;;;;;5052206;28;20043;-68
2023/12/14 02:04:00;;;;;;;14.20;3.00;;;;;;;;;;5039920;28;20029;-69
2023/12/14 02:07:04;;;;;;;11.98;2.50;;;;;;;;;;5052124;28;20033;-68
2023/12/14 02:10:09;;;;;;;15.77;2.80;;;16.00;99.90;;;;;;5052084;28;20041;-69
2023/12/14 02:13:13;;;;;;;11.77;2.42;;;;;;;;;;5052323;28;20056;-68
2023/12/14 02:16:18;;;;;;;12.70;2.80;;;;;;;;;;5052302;28;20052;-68
2023/12/14 02:19:22;;;;;;;16.00;2.88;;;;;;;;;;5052310;28;20509;-68
2023/12/14 02:22:27;;;;;;;13.57;3.42;;;;;;;;;;5051378;28;20404;-69
2023/12/14 02:25:31;;;;;;;18.25;3.50;;;;;;;;;;5052075;28;20040;-69
2023/12/14 02:28:35;;;;;;;16.77;3.95;;;;;;;;;;5052100;28;20040;-69
2023/12/14 02:31:40;;;;;;;16.45;3.20;;;;;;;;;;5051857;28;20044;-68
2023/12/14 02:34:44;;;;;;;20.48;3.70;;;;;;;;;;5050997;28;20049;-68
2023/12/14 02:37:48;;;;;;;18.20;3.63;;;;;;;;;;5051842;28;20063;-68
2023/12/14 02:40:52;;;;;;;18.98;3.40;;;;;;;;;;5052176;28;20040;-67
2023/12/14 02:43:57;;;;;;;18.75;3.90;;;;;;;;;;5051555;28;20397;-68
2023/12/14 02:47:01;;;;;;;16.05;3.35;;;;;;;;;;5051775;28;20032;-69
2023/12/14 02:50:05;;;;;;;17.20;3.70;;;;;;;;;;5051682;28;20041;-68
2023/12/14 02:53:10;;;;;;;18.10;3.55;;;;;;;;;;5051675;28;20044;-68
2023/12/14 02:56:14;;;;;;;14.85;3.28;;;;;;;;;;5051380;28;20040;-68
2023/12/14 02:59:19;;;;;;;18.02;2.83;;;;;;;;;;5051318;28;20044;-68
2023/12/14 03:02:23;;;;;;;20.60;2.38;;;;;;;;;;5051393;28;20040;-68
2023/12/14 03:05:27;;;;;;;19.83;2.50;;;;;;;;;;5051221;28;20040;-69
2023/12/14 03:08:31;;;;;;;14.27;2.55;;;;;;;;;;5051102;28;20049;-68
2023/12/14 03:11:36;;;;;;;14.32;2.22;;;;;;;;;;5051269;28;20033;-68
2023/12/14 03:14:40;;;;;;;12.55;2.60;;;;;;;;;;5051314;28;20056;-68
2023/12/14 03:17:44;;;;;;;11.55;1.92;;;;;;;;;;5050832;28;20037;-68
2023/12/14 03:20:50;;;;;;;10.55;1.60;;;;;;;;;;5051219;28;20040;-68
2023/12/14 03:23:54;;;;;;;9.80;1.70;;;;;;;;;;5050399;28;20036;-68
2023/12/14 03:26:59;;;;;;;10.98;2.17;;;;;;;;;;5050807;28;20497;-68
2023/12/14 03:30:07;;;;;;;12.27;2.17;;;;;;;;;;5050216;28;20048;-67
2023/12/14 03:33:12;;;;;;;17.60;2.65;;;;;;;;;;5050827;28;20045;-68
2023/12/14 03:36:17;;;;;;;12.13;2.10;;;;;;;;;;5051042;28;20040;-68
2023/12/14 03:39:21;;;;;;;16.10;2.28;;;;;;;;;;5051114;28;20048;-68
2023/12/14 03:42:26;;;;;;;18.83;2.88;;;;;;;;;;5054366;28;20049;-68
2023/12/14 03:45:30;;;;;;;12.18;2.05;;;;;;;;;;5054921;28;20037;-68
2023/12/14 03:48:34;;;;;;;13.00;1.73;;;;;;;;;;5054938;28;20040;-68
2023/12/14 03:51:39;;;;;;;11.65;2.97;;;;;;;;;;5054745;28;20047;-68
2023/12/14 03:54:43;;;;;;;15.35;2.03;;;;;;;;;;5054823;28;20044;-67
2023/12/14 03:57:50;;;;;;;10.77;1.98;;;;;;;;;;5054831;28;20503;-68
2023/12/14 04:00:54;;;;;;;12.05;2.28;;;;;;;;;;5054434;28;20203;-68
2023/12/14 04:03:58;;;;;;;15.23;1.80;;;;;;;;;;5054682;28;20661;-69
2023/12/14 04:07:03;;;;;;;11.38;2.28;;;;;;;;;;5054433;28;20576;-68
2023/12/14 04:10:08;;;;;;;14.93;1.80;;;15.00;99.90;;;;;;5054498;28;20045;-69
2023/12/14 04:13:13;;;;;;;15.15;2.45;;;;;;;;;;5054181;28;20076;-69
2023/12/14 04:16:20;;;;;;;13.00;1.92;;;;;;;;;;5054092;28;20050;-68
2023/12/14 04:19:25;;;;;;;13.63;1.80;;;;;;;;;;5054130;28;20029;-69
2023/12/14 04:22:29;;;;;;;14.75;2.40;;;;;;;;;;5054021;28;20037;-68
2023/12/14 04:25:34;;;;;;;12.00;2.13;;;;;;;;;;5053869;28;20370;-68
2023/12/14 04:28:38;;;;;;;17.15;2.92;;;;;;;;;;5054105;28;20052;-68
2023/12/14 04:31:42;;;;;;;15.05;2.00;;;;;;;;;;5053992;28;20049;-67
2023/12/14 04:34:46;;;;;;;16.80;1.95;;;;;;;;;;5053939;28;20511;-68
2023/12/14 04:37:51;;;;;;;12.70;2.10;;;;;;;;;;5053945;28;20487;-68
2023/12/14 04:40:58;;;;;;;12.57;2.70;;;;;;;;;;5053517;28;20378;-67
2023/12/14 04:44:02;;;;;;;12.65;2.22;;;;;;;;;;5053969;28;20488;-68
2023/12/14 04:47:08;;;;;;;10.98;2.75;;;;;;;;;;5052961;28;20347;-68
2023/12/14 04:50:12;;;;;;;9.25;2.38;;;;;;;;;;5053530;28;20599;-67
2023/12/14 04:53:16;;;;;;;8.70;2.25;;;;;;;;;;5052771;28;20041;-68
2023/12/14 04:56:20;;;;;;;13.98;2.97;;;;;;;;;;5053558;28;20025;-67
2023/12/14 04:59:25;;;;;;;21.77;3.10;;;;;;;;;;5053698;28;20379;-68
2023/12/14 05:02:31;;;;;;;11.23;2.33;;;12.60;99.90;;;;;;5053344;28;20503;-69
2023/12/14 05:05:36;;;;;;;9.52;2.22;;;;;;;;;;5053388;28;20048;-68
2023/12/14 05:08:40;;;;;;;10.68;2.10;;;;;;;;;;5052986;28;20053;-67
2023/12/14 05:11:44;;;;;;;14.65;3.25;;;;;;;;;;5053451;28;20040;-69
2023/12/14 05:14:48;;;;;;;14.38;2.22;;;;;;;;;;5052520;28;20041;-69
2023/12/14 05:17:53;;;;;;;13.23;3.13;;;;;;;;;;5053165;28;20047;-68
2023/12/14 05:20:57;;;;;;;13.10;2.38;;;;;;;;;;5053432;28;20051;-68
2023/12/14 05:24:02;;;;;;;9.07;2.25;;;;;;;;;;5053278;28;20498;-68
2023/12/14 05:27:07;;;;;;;10.90;2.72;;;;;;;;;;5052968;28;20040;-68
2023/12/14 05:30:11;;;;;;;9.75;2.30;;;;;;;;;;5052872;28;20545;-68
2023/12/14 05:33:15;;;;;;;9.63;2.30;;;;;;;;;;5051658;28;20053;-69
2023/12/14 05:36:19;;;;;;;13.20;2.03;;;;;;;;;;5052712;28;20044;-69
2023/12/14 05:39:27;;;;;;;12.63;2.50;;;;;;;;;;5052680;28;20408;-69
2023/12/14 05:42:31;;;;;;;12.27;2.25;;;;;;;;;;5052623;28;20048;-68
2023/12/14 05:45:36;;;;;;;13.32;2.65;;;14.30;99.90;;;;;;5052785;28;20041;-68
2023/12/14 05:48:40;;;;;;;16.95;2.35;;;;;;;;;;5052793;28;20072;-67
2023/12/14 05:51:44;;;;;;;13.38;2.40;;;;;;;;;;5052658;28;20040;-68
2023/12/14 05:54:49;;;;;;;10.18;3.17;;;;;;;;;;5052308;28;20055;-68
2023/12/14 05:57:54;;;;;;;16.33;2.97;;;;;;;;;;5052497;28;20040;-68
2023/12/14 06:00:58;;;;;;;12.13;3.00;;;;;;;;;;5052471;28;20045;-68
2023/12/14 06:04:05;;;;;;;12.95;3.55;;;15.10;99.90;;;;;;5052446;28;20037;-68
2023/12/14 06:07:10;;;;;;;15.07;3.50;;;;;;;;;;5052021;28;20048;-69
2023/12/14 06:10:14;;;;;;;11.30;3.80;;;;;;;;;;5052148;28;20048;-69
2023/12/14 06:13:18;;;;;;;17.45;4.28;;;;;;;;;;5051174;28;20409;-69
2023/12/14 06:16:23;;;;;;;19.05;3.60;;;;;;;;;;5051094;28;20036;-68
2023/12/14 06:19:27;;;;;;;14.65;4.20;;;;;;;;;;5051185;28;20036;-69
2023/12/14 06:22:31;;;;;;;13.57;4.10;;;;;;;;;;5051332;28;20036;-69
2023/12/14 06:25:36;;;;;;;16.27;3.50;;;;;;;;;;5051867;28;20525;-69
2023/12/14 06:28:40;;;;;;;14.75;3.40;;;;;;;;;;5051649;28;20048;-69
2023/12/14 06:31:45;;;;;;;14.95;3.20;;;13.80;99.90;;;;;;5051895;28;20500;-69
2023/12/14 06:34:50;;;;;;;13.23;3.60;;;;;;;;;;5051630;28;20056;-64
2023/12/14 06:37:54;;;;;;;15.82;3.22;;;;;;;;;;5051527;28;20033;-65
2023/12/14 06:40:59;;;;;;;18.80;4.30;;;;;;;;;;5051690;28;20041;-65
2023/12/14 06:44:03;;;;;;;16.48;4.30;;;;;;;;;;5051224;28;20029;-66
2023/12/14 06:47:08;;;;;;;14.45;4.03;;;;;;;;;;5051209;28;20040;-65
2023/12/14 06:50:13;;;;;;;12.20;3.50;;;;;;;;;;5051319;28;20036;-65
2023/12/14 06:53:18;;;;;;;17.52;4.30;;;;;;;;;;5051392;28;20041;-65
2023/12/14 06:56:22;;;;;;;13.98;4.07;;;;;;;;;;5050273;28;20498;-64
2023/12/14 06:59:27;;;;;;;15.60;4.28;;;;;;;;;;5039237;28;20048;-66
2023/12/14 07:02:31;;;;;;;20.42;4.72;;;;;;;;;;5051397;28;20039;-66
2023/12/14 07:05:36;;;;;;;15.82;4.10;;;;;;;;;;5051183;28;20469;-65
2023/12/14 07:08:41;;;;;;;14.65;5.07;;;;;;;;;;5050926;28;20061;-65
2023/12/14 07:11:45;;;;;;;15.43;5.10;;;;;;;;;;5051416;28;20041;-66
2023/12/14 07:14:49;;;;;;;14.13;4.60;;;;;;;;;;5050589;28;20506;-65
2023/12/14 07:17:53;;;;;;;17.90;5.78;;;;;;;;;;5050278;28;20048;-65
2023/12/14 07:20:58;;;;;;;20.45;5.97;;;;;;;;;;5051504;28;20044;-66
2023/12/14 07:24:02;;;;;;;18.70;6.57;;;;;;;;;;5050761;28;20510;-65
2023/12/14 07:27:06;;;;;;;19.60;7.07;;;;;;;;;;5051059;28;20045;-66
2023/12/14 07:30:11;;;;;;;18.95;6.80;;;;;;;;;;5050537;28;20037;-68
2023/12/14 07:33:16;;;;;;;19.33;5.90;;;14.10;99.90;;;;;;5050859;28;20048;-66
2023/12/14 07:36:22;;;;;;;15.30;5.90;;;;;;;;;;5050704;28;20052;-64
2023/12/14 07:39:26;;;;;;;18.92;5.53;;;;;;;;;;5050591;28;20064;-65
2023/12/14 07:42:31;;;;;;;16.10;5.57;;;;;;;;;;5050789;28;20044;-66
2023/12/14 07:45:35;;;;;;;16.25;5.85;;;;;;;;;;5050362;28;20041;-65
2023/12/14 07:48:40;;;;;;;18.48;7.00;;;;;;;;;;5049836;28;20033;-63
2023/12/14 07:51:47;;;;;;;20.50;6.70;;;;;;;;;;5050231;28;20037;-63
2023/12/14 07:54:51;;;;;;;19.40;6.35;;;;;;;;;;5050496;28;20060;-64
2023/12/14 07:57:56;;;;;;;19.20;6.38;;;;;;;;;;5050887;28;20427;-65
2023/12/14 08:01:00;;;;;;;20.52;6.93;;;;;;;;;;5050651;28;20045;-66
2023/12/14 08:04:04;;;;;;;15.15;6.57;;;;;;;;;;5050023;28;20041;-65
2023/12/14 08:07:08;;;;;;;19.05;6.60;;;;;;;;;;5049626;28;20052;-64
2023/12/14 08:10:13;;;;;;;15.60;5.93;;;;;;;;;;5050546;28;20044;-63
2023/12/14 08:13:18;;;;;;;20.52;6.72;;;;;;;;;;5050431;28;20054;-63
2023/12/14 08:16:22;;;;;;;20.23;7.32;;;;;;;;;;5050586;28;20052;-62
2023/12/14 08:19:27;;;;;;;22.00;7.55;;;;;;;;;;5050175;28;20406;-64
2023/12/14 08:22:31;;;;;;;24.55;9.13;;;;;;;;;;5050558;28;20041;-63
2023/12/14 08:25:36;;;;;;;23.10;8.68;;;;;;;;;;5049940;28;20064;-65
2023/12/14 08:28:40;;;;;;;21.13;8.20;;;;;;;;;;5051999;28;20073;-63
2023/12/14 08:31:44;;;;;;;20.17;7.78;;;;;;;;;;5053746;28;20045;-63
2023/12/14 08:34:49;;;;;;;21.88;8.25;;;14.50;99.90;;;;;;5053439;28;20044;-64
2023/12/14 08:37:54;;;;;;;27.52;8.57;;;;;;;;;;5053348;28;20183;-64
2023/12/14 08:40:58;;;;;;;24.58;8.50;;;;;;;;;;5053979;28;20044;-65
2023/12/14 08:44:03;;;;;;;19.95;8.35;;;;;;;;;;5053586;28;20108;-63
2023/12/14 08:47:08;;;;;;;23.85;8.15;;;;;;;;;;5053732;28;20048;-65
2023/12/14 08:50:13;;;;;;;31.50;8.68;;;;;;;;;;5053264;28;20562;-64
2023/12/14 08:53:17;;;;;;;29.17;9.95;;;;;;;;;;5053491;28;20037;-64
2023/12/14 08:56:21;;;;;;;19.48;8.75;;;;;;;;;;5053384;28;20342;-64
2023/12/14 08:59:26;;;;;;;26.13;9.63;;;;;;;;;;5053338;28;20052;-64
2023/12/14 09:02:30;;;;;;;20.55;9.50;;;;;;;;;;5053204;28;20397;-64
2023/12/14 09:05:34;;;;;;;26.35;9.40;;;;;;;;;;5053387;28;20029;-64
2023/12/14 09:08:39;;;;;;;32.35;11.30;;;;;;;;;;5053053;28;20478;-64
2023/12/14 09:11:44;;;;;;;20.73;8.82;;;;;;;;;;5053061;28;20040;-63
2023/12/14 09:14:48;;;;;;;18.02;9.55;;;;;;;;;;5052504;28;20044;-64
2023/12/14 09:17:54;;;;;;;22.50;10.02;;;;;;;;;;5052188;28;20044;-65
2023/12/14 09:20:58;;;;;;;19.10;8.88;;;;;;;;;;5052840;28;20047;-64
2023/12/14 09:24:03;;;;;;;25.15;9.82;;;;;;;;;;5053021;28;20045;-64
2023/12/14 09:27:07;;;;;;;23.45;9.43;;;;;;;;;;5052799;28;20041;-65
2023/12/14 09:30:12;;;;;;;28.08;10.30;;;;;;;;;;5052649;28;20051;-64
2023/12/14 09:33:16;;;;;;;24.33;10.30;;;;;;;;;;5052337;28;20043;-64
2023/12/14 09:36:21;;;;;;;26.15;11.25;;;;;;;;;;5052789;28;20052;-64
2023/12/14 09:39:25;;;;;;;26.95;11.27;;;;;;;;;;5052340;28;20044;-65
2023/12/14 09:42:37;;;;;;;31.17;14.77;;;;;;;;;;5052446;28;20052;-65
2023/12/14 09:45:44;;;;;;;27.23;14.30;;;;;;;;;;5052129;28;20531;-64
2023/12/14 09:48:50;;;;;;;23.95;13.52;;;;;;;;;;5052533;28;20044;-66
2023/12/14 09:51:54;;;;;;;28.65;13.98;;;;;;;;;;5052470;28;20056;-64
2023/12/14 09:54:59;;;;;;;31.10;15.25;;;;;;;;;;5051804;28;20052;-64
2023/12/14 09:58:03;;;;;;;31.02;15.38;;;;;;;;;;5051479;28;20040;-65
2023/12/14 10:01:26;;;;;;;31.92;15.45;;;;;;;;;;5052201;28;20043;-64
2023/12/14 10:04:33;;;;;;;40.72;15.25;;;;;;;;;;5052003;28;20044;-65
2023/12/14 10:07:44;;;;;;;34.60;15.93;;;15.00;99.90;;;;;;5051942;28;20056;-65
2023/12/14 10:10:51;;;;;;;28.43;13.93;;;;;;;;;;5051976;28;20060;-65
2023/12/14 10:13:55;;;;;;;33.00;14.75;;;;;;;;;;5052139;28;20052;-66
2023/12/14 10:17:00;;;;;;;27.65;14.30;;;;;;;;;;5052077;28;20056;-64
2023/12/14 10:20:05;;;;;;;32.80;15.18;;;;;;;;;;5051757;28;20103;-66
2023/12/14 10:23:09;;;;;;;29.92;12.60;;;14.90;99.90;;;;;;5051912;28;20056;-65
2023/12/14 10:26:15;;;;;;;29.15;12.20;;;;;;;;;;5051705;28;20044;-64
2023/12/14 10:29:19;;;;;;;39.38;12.07;;;;;;;;;;5051513;28;20370;-64
2023/12/14 10:32:24;;;;;;;30.70;10.40;;;;;;;;;;5051515;28;20044;-63
2023/12/14 10:35:28;;;;;;;27.50;9.80;;;;;;;;;;5051251;28;20056;-65
2023/12/14 10:38:33;;;;;;;25.08;9.25;;;;;;;;;;5051301;28;20041;-68
2023/12/14 10:41:38;;;;;;;25.05;10.05;;;;;;;;;;5051604;28;20044;-64
2023/12/14 10:44:42;;;;;;;24.52;8.98;;;;;;;;;;5050532;28;20037;-64
2023/12/14 10:47:49;;;;;;;24.95;8.50;;;15.30;99.90;;;;;;5051373;28;20511;-68
2023/12/14 10:50:55;;;;;;;24.50;9.02;;;;;;;;;;5050199;28;20044;-67
2023/12/14 10:53:59;;;;;;;23.58;9.70;;;;;;;;;;5051060;28;20052;-65
2023/12/14 10:57:05;;;;;;;28.65;10.52;;;;;;;;;;5050703;28;20049;-66
2023/12/14 11:00:10;;;;;;;25.55;9.55;;;;;;;;;;5051491;28;20048;-65
2023/12/14 11:03:14;;;;;;;28.73;9.98;;;;;;;;;;5051268;28;20398;-65
2023/12/14 11:06:37;;;;;;;24.83;11.40;;;;;;;;;;5050842;28;20045;-65
2023/12/14 11:09:44;;;;;;;28.98;10.73;;;16.50;99.90;;;;;;5051304;28;20052;-66
2023/12/14 11:13:00;;;;;;;23.42;10.70;;;15.30;99.90;;;;;;5051487;28;20068;-66
2023/12/14 11:16:04;;;;;;;28.70;12.48;;;;;;;;;;5050809;28;20060;-67
2023/12/14 11:19:26;;;;;;;30.67;12.45;;;15.00;99.90;;;;;;5050814;28;20503;-67
2023/12/14 11:22:33;;;;;;;25.98;9.90;;;15.40;99.90;;;;;;5051002;28;20504;-67
2023/12/14 11:25:38;;;;;;;26.80;7.85;;;;;;;;;;5050794;28;20475;-66
2023/12/14 11:28:42;;;;;;;16.95;4.88;;;;;;;;;;5050666;28;20032;-65
2023/12/14 11:31:47;;;;;;;21.08;4.20;;;;;;;;;;5051185;28;20361;-66
2023/12/14 11:34:51;;;;;;;15.15;3.42;;;;;;;;;;5050739;28;20080;-65
2023/12/14 11:38:02;;;;;;;16.65;3.72;;;;;;;;;;5050965;28;20045;-64
2023/12/14 11:41:07;;;;;;;16.60;3.42;;;;;;;;;;5038969;28;20098;-64
2023/12/14 11:44:11;;;;;;;13.48;3.60;;;;;;;;;;5049835;28;20033;-65
2023/12/14 11:47:15;;;;;;;22.98;4.53;;;;;;;;;;5050782;28;20497;-65
2023/12/14 11:50:20;;;;;;;22.55;5.93;;;;;;;;;;5050907;28;20362;-65
2023/12/14 11:53:25;;;;;;;18.45;5.07;;;;;;;;;;5050375;28;20156;-65
2023/12/14 11:56:30;;;;;;;16.83;3.60;;;;;;;;;;5050715;28;20064;-66
2023/12/14 11:59:36;;;;;;;20.90;5.82;;;;;;;;;;5050680;28;20151;-65
2023/12/14 12:02:42;;;;;;;18.25;5.28;;;;;;;;;;5052201;28;20050;-66
2023/12/14 12:05:51;;;;;;;29.25;7.45;;;15.20;99.90;;;;;;5054377;28;20388;-65
2023/12/14 12:08:55;;;;;;;21.08;7.00;;;;;;;;;;5054059;28;20060;-67
2023/12/14 12:11:59;;;;;;;21.63;5.75;;;;;;;;;;5054194;28;20029;-66
2023/12/14 12:15:05;;;;;;;15.80;4.45;;;;;;;;;;5054189;28;20115;-66
2023/12/14 12:18:10;;;;;;;19.02;4.20;;;;;;;;;;5054385;28;20045;-66
2023/12/14 12:21:15;;;;;;;23.05;6.28;;;;;;;;;;5054084;28;20052;-65
2023/12/14 12:24:19;;;;;;;22.20;5.43;;;;;;;;;;5054188;28;20044;-66
2023/12/14 12:27:23;;;;;;;17.58;6.03;;;;;;;;;;5054070;28;20041;-65
2023/12/14 12:30:28;;;;;;;17.83;4.70;;;15.20;99.90;;;;;;5054022;28;20048;-66
2023/12/14 12:33:37;;;;;;;13.80;2.80;;;;;;;;;;5053859;28;20531;-67
2023/12/14 12:36:41;;;;;;;16.42;3.10;;;;;;;;;;5053786;28;20510;-66
2023/12/14 12:39:46;;;;;;;18.88;3.67;;;;;;;;;;5053348;28;20037;-66
2023/12/14 12:42:51;;;;;;;15.43;3.17;;;;;;;;;;5053688;28;20087;-67
2023/12/14 12:45:57;;;;;;;13.13;3.00;;;;;;;;;;5053729;28;20047;-66
2023/12/14 12:49:02;;;;;;;13.20;2.72;;;15.20;99.90;;;;;;5054048;28;20633;-67
2023/12/14 12:52:06;;;;;;;9.82;2.65;;;;;;;;;;5053771;28;20056;-67
2023/12/14 12:55:11;;;;;;;8.73;2.10;;;;;;;;;;5053325;28;20398;-67
2023/12/14 12:58:15;;;;;;;10.95;2.10;;;;;;;;;;5053608;28;20033;-65
2023/12/14 13:01:19;;;;;;;9.90;2.35;;;;;;;;;;5053516;28;20043;-66
2023/12/14 13:04:24;;;;;;;14.98;3.20;;;;;;;;;;5053723;28;20037;-65
2023/12/14 13:07:28;;;;;;;16.45;5.45;;;;;;;;;;5052970;28;20041;-67
2023/12/14 13:10:37;;;;;;;14.85;6.05;;;;;;;;;;5053268;28;20040;-66
2023/12/14 13:13:43;;;;;;;18.65;7.15;;;;;;;;;;5052331;28;20037;-67
2023/12/14 13:16:47;;;;;;;18.25;8.18;;;;;;;;;;5053362;28;20049;-66
2023/12/14 13:19:52;;;;;;;16.00;8.45;;;;;;;;;;5053073;28;20485;-66
2023/12/14 13:23:00;;;;;;;19.63;8.90;;;;;;;;;;5052983;28;20479;-66
2023/12/14 13:26:04;;;;;;;17.10;8.77;;;;;;;;;;5052843;28;20047;-66
2023/12/14 13:29:08;;;;;;;21.98;9.68;;;;;;;;;;5052324;28;20040;-65
2023/12/14 13:32:12;;;;;;;15.25;8.43;;;;;;;;;;5051643;28;20073;-67
2023/12/14 13:35:17;;;;;;;16.48;8.23;;;;;;;;;;5052155;28;20517;-66
2023/12/14 13:38:21;;;;;;;17.75;9.18;;;;;;;;;;5052536;28;20048;-67
2023/12/14 13:41:26;;;;;;;19.73;9.52;;;;;;;;;;5052871;28;20036;-66
2023/12/14 13:44:30;;;;;;;25.35;9.90;;;;;;;;;;5052417;28;20048;-67
2023/12/14 13:47:34;;;;;;;19.67;11.25;;;;;;;;;;5052715;28;20037;-67
2023/12/14 13:50:40;;;;;;;19.67;10.40;;;;;;;;;;5052636;28;20051;-67
2023/12/14 13:53:44;;;;;;;26.80;9.60;;;;;;;;;;5052603;28;20504;-66
2023/12/14 13:56:49;;;;;;;22.80;9.98;;;;;;;;;;5052431;28;20052;-67
2023/12/14 13:59:54;;;;;;;17.90;10.70;;;12.90;99.90;;;;;;5052449;28;20040;-67
2023/12/14 14:02:58;;;;;;;17.65;9.63;;;;;;;;;;5052072;28;20056;-67
2023/12/14 14:06:03;;;;;;;18.85;8.30;;;15.00;99.90;;;;;;5052039;28;20041;-67
2023/12/14 14:09:08;;;;;;;14.63;7.55;;;;;;;;;;5051858;28;20056;-66
2023/12/14 14:12:12;;;;;;;13.90;6.82;;;;;;;;;;5052048;28;20044;-66
2023/12/14 14:15:17;;;;;;;15.60;7.65;;;;;;;;;;5051659;28;20076;-66
2023/12/14 14:18:21;;;;;;;16.98;8.73;;;;;;;;;;5052159;28;20154;-66
2023/12/14 14:21:26;;;;;;;16.50;8.75;;;;;;;;;;5051720;28;20041;-65
2023/12/14 14:24:31;;;;;;;23.92;10.50;;;;;;;;;;5051658;28;20048;-67
2023/12/14 14:27:36;;;;;;;20.30;10.60;;;14.70;99.90;;;;;;5051621;28;20504;-65
2023/12/14 14:30:40;;;;;;;21.67;11.75;;;;;;;;;;5051567;28;20393;-65
2023/12/14 14:33:47;;;;;;;18.65;11.50;;;;;;;;;;5051048;28;20543;-66
2023/12/14 14:36:51;;;;;;;26.35;13.68;;;;;;;;;;5051699;28;20519;-67
2023/12/14 14:39:55;;;;;;;25.27;13.57;;;;;;;;;;5051084;28;20052;-66
2023/12/14 14:43:00;;;;;;;28.27;13.70;;;;;;;;;;5051353;28;20044;-66
2023/12/14 14:46:04;;;;;;;28.60;13.25;;;;;;;;;;5051388;28;20052;-66
2023/12/14 14:49:08;;;;;;;28.65;12.95;;;;;;;;;;5051699;28;20052;-66
2023/12/14 14:52:13;;;;;;;25.08;12.98;;;;;;;;;;5050499;28;20044;-66
2023/12/14 14:55:21;;;;;;;23.40;12.02;;;;;;;;;;5050936;28;20055;-66
2023/12/14 14:58:25;;;;;;;23.65;11.60;;;;;;;;;;5051152;28;20052;-68
2023/12/14 15:01:30;;;;;;;21.85;10.77;;;;;;;;;;5051040;28;20048;-66
2023/12/14 15:04:34;;;;;;;17.10;10.65;;;;;;;;;;5051274;28;20060;-67
2023/12/14 15:07:39;;;;;;;20.08;10.45;;;;;;;;;;5051108;28;20044;-66
2023/12/14 15:10:44;;;;;;;22.60;11.48;;;;;;;;;;5051314;28;20071;-67
2023/12/14 15:13:48;;;;;;;18.05;10.63;;;;;;;;;;5051387;28;20048;-66
2023/12/14 15:16:52;;;;;;;19.77;9.93;;;;;;;;;;5050597;28;20052;-65
2023/12/14 15:19:57;;;;;;;16.65;9.77;;;;;;;;;;5050846;28;20033;-65
2023/12/14 15:23:05;;;;;;;20.05;11.35;;;;;;;;;;5050198;28;20056;-68
2023/12/14 15:26:10;;;;;;;20.52;11.25;;;;;;;;;;5051013;28;20044;-66
2023/12/14 15:29:14;;;;;;;23.20;13.05;;;;;;;;;;5050732;28;20499;-66
2023/12/14 15:32:19;;;;;;;23.85;13.23;;;;;;;;;;5050889;28;20048;-65
2023/12/14 15:35:23;;;;;;;23.55;12.18;;;;;;;;;;5050530;28;20068;-65
2023/12/14 15:38:30;;;;;;;36.30;22.40;;;;;;;;;;5054011;28;20043;-64
2023/12/14 15:41:35;;;;;;;27.48;15.77;;;;;;;;;;5052990;28;20052;-65
2023/12/14 15:44:39;;;;;;;20.35;13.45;;;;;;;;;;5052218;28;20067;-64
2023/12/14 15:47:44;;;;;;;21.55;13.27;;;;;;;;;;5054235;28;20048;-64
2023/12/14 15:50:48;;;;;;;23.77;13.00;;;;;;;;;;5053615;28;20396;-65
2023/12/14 15:53:53;;;;;;;19.88;11.80;;;;;;;;;;5054600;28;20068;-68
2023/12/14 15:56:58;;;;;;;23.45;12.23;;;;;;;;;;5054498;28;20060;-67
2023/12/14 16:00:03;;;;;;;31.25;17.55;;;;;;;;;;5053342;28;20107;-66
2023/12/14 16:03:11;;;;;;;25.38;15.82;;;;;;;;;;5054209;28;20048;-67
2023/12/14 16:06:17;;;;;;;26.80;14.27;;;13.40;99.90;;;;;;5053486;28;20048;-64
2023/12/14 16:09:22;;;;;;;25.60;14.38;;;;;;;;;;5054216;28;20060;-64
2023/12/14 16:12:26;;;;;;;22.17;12.82;;;;;;;;;;5053642;28;20048;-65
2023/12/14 16:15:30;;;;;;;19.45;12.20;;;;;;;;;;5051371;28;20101;-65
2023/12/14 16:18:35;;;;;;;20.20;11.93;;;;;;;;;;5053478;28;20035;-67
2023/12/14 16:21:39;;;;;;;18.70;10.40;;;;;;;;;;5053347;28;20388;-66
2023/12/14 16:24:44;;;;;;;18.10;9.80;;;13.70;99.90;;;;;;5053525;28;20048;-65
2023/12/14 16:27:48;;;;;;;16.00;9.13;;;;;;;;;;5053352;28;20044;-63
2023/12/14 16:30:52;;;;;;;24.55;9.82;;;;;;;;;;5053808;28;20064;-64
2023/12/14 16:33:58;;;;;;;12.57;9.20;;;;;;;;;;5053550;28;20025;-64
2023/12/14 16:37:03;;;;;;;13.75;8.25;;;;;;;;;;5054121;28;20049;-64
2023/12/14 16:40:07;;;;;;;16.98;8.52;;;;;;;;;;5054177;28;20037;-63
2023/12/14 16:43:15;;;;;;;17.13;8.98;;;;;;;;;;5052862;28;20060;-64
2023/12/14 16:46:19;;;;;;;20.17;10.68;;;;;;;;;;5053236;28;20633;-64
2023/12/14 16:49:24;;;;;;;16.60;8.95;;;;;;;;;;5052390;28;20048;-64
2023/12/14 16:52:28;;;;;;;26.67;19.15;;;;;;;;;;5053408;28;20520;-63
2023/12/14 16:55:32;;;;;;;28.20;14.50;;;;;;;;;;5053438;28;20047;-64
2023/12/14 16:58:38;;;;;;;27.67;13.77;;;;;;;;;;5052373;28;20040;-65
2023/12/14 17:01:42;;;;;;;24.83;12.57;;;;;;;;;;5051773;28;20067;-65
2023/12/14 17:04:46;;;;;;;18.00;10.45;;;;;;;;;;5052372;28;20384;-65
2023/12/14 17:07:51;;;;;;;17.73;10.45;;;;;;;;;;5052906;28;20123;-66
2023/12/14 17:10:55;;;;;;;22.02;11.90;;;13.60;99.90;;;;;;5053370;28;20044;-66
2023/12/14 17:14:00;;;;;;;15.40;8.65;;;;;;;;;;5052924;28;20056;-65
2023/12/14 17:17:05;;;;;;;14.50;9.05;;;;;;;;;;5051936;28;20048;-65
2023/12/14 17:20:09;;;;;;;19.85;11.05;;;;;;;;;;5053484;28;20048;-65
2023/12/14 17:23:14;;;;;;;34.22;16.48;;;;;;;;;;5053109;28;20040;-65
2023/12/14 17:26:18;;;;;;;21.20;12.80;;;;;;;;;;5053024;28;20649;-65
2023/12/14 17:29:22;;;;;;;30.85;16.38;;;;;;;;;;5052905;28;20068;-65
2023/12/14 17:32:30;;;;;;;28.05;18.08;;;;;;;;;;5052972;28;20511;-64
2023/12/14 17:35:35;;;;;;;26.40;16.40;;;;;;;;;;5051746;28;20060;-65
2023/12/14 17:38:39;;;;;;;28.90;17.90;;;;;;;;;;5052807;28;20043;-64
2023/12/14 17:41:46;;;;;;;24.45;14.75;;;13.20;99.90;;;;;;5052382;28;20044;-65
2023/12/14 17:44:50;;;;;;;26.85;17.63;;;;;;;;;;5052373;28;20048;-65
2023/12/14 17:47:54;;;;;;;25.38;13.98;;;;;;;;;;5052654;28;20055;-66
2023/12/14 17:51:00;;;;;;;26.98;16.10;;;13.30;99.90;;;;;;5052392;28;20056;-66
2023/12/14 17:54:04;;;;;;;30.30;18.45;;;;;;;;;;5052357;28;20044;-73
2023/12/14 17:57:09;;;;;;;26.65;19.45;;;;;;;;;;5051810;28;20048;-70